Etusivu
METAR-TAF:

METAR-TAF

Lentoasemat :

Baker City, Oregon, Yhdysvallat

Leveyspiiri: 44-50-14N, Pituuspiiri: 117-48-33W, korkeus merenpinnasta: 1028 m

Tämänhetkinen sää

Tämä raportti tehtiin 10 minuuttia sitten, kello 08.20 UTC
Tuuli 4 kn lännestä/lounaasta
Lämpötila 11°C
Kosteus 76%
Ilmanpaine 1020 hPa
Näkyvyys: 16.1 km
Hajonneita pilviä 2700 ft:n korkeudessa

METAR: KBKE 240820Z AUTO 24004KT 10SM BKN027 11/07 A3012 RMK AO2 T01110072

Aika: 01:30 (08:30 UTC)

Sääennuste

Tämä raportti tehtiin 2 tuntia ja 1 minuuttia sitten, kello 06.29 UTC
Ennuste voimassa 24. päivästä klo 06 UTC - 25. päivään klo 06 UTC
Tuuli 4 kn eri suunnista
Näkyvyys: 10 km
Hajonneita pilviä 2500 ft:n korkeudessa
From 24. päivästä klo 1600 UTC
Tuuli 11 kn luoteesta
Näkyvyys: 10 km
selkeää

TAF: KBKE 240629Z 2406/2506 VRB04KT P6SM BKN025 FM241600 32011KT P6SM SKC

Säähavainnot ja -ennusteet yli 4000 lentoasemalta (METAR- ja TAF-raportit).

Käytössä olevat sääasemat on merkitty karttaan keltaisilla ja punaisilla pisteillä.

Aseta hiiri pisteen päälle nähdäksesi sääaseman nimen.

Klikkaa sitten nähdäksesi säähavainnot ja -ennusteet.

Kartan vaihtaminen: klikkaa mustalla rastilla varustettuja vihreitä pisteitä, niin voit zoomata sisään; viivalla varustettua vihreää pistettä, niin voit zoomata ulos tai vihreitä nuolia, niin pääset viereisille kartoille.


METAR-TAF: